createdAt,value
2018-01-23T00:00:01.390Z,81.49
2018-01-23T00:02:27.876Z,81.19
2018-01-23T00:04:54.442Z,81.06
2018-01-23T00:07:21.787Z,81.44
2018-01-23T00:09:48.369Z,81.67
2018-01-23T00:12:14.985Z,81.82
2018-01-23T00:14:41.578Z,81.61
2018-01-23T00:17:08.555Z,81.67
2018-01-23T00:19:35.863Z,80.73
2018-01-23T00:22:02.460Z,80.91
2018-01-23T00:24:29.115Z,81.25
2018-01-23T00:26:55.694Z,81.68
2018-01-23T00:29:22.258Z,81.70
2018-01-23T00:31:49.601Z,81.89
2018-01-23T00:34:16.942Z,82.34
2018-01-23T00:36:43.523Z,82.33
2018-01-23T00:39:10.129Z,82.19
2018-01-23T00:41:36.766Z,82.45
2018-01-23T00:44:04.139Z,82.68
2018-01-23T00:46:31.458Z,82.85
2018-01-23T00:48:58.017Z,82.82
2018-01-23T00:51:24.621Z,82.74
2018-01-23T00:53:52.015Z,82.44
2018-01-23T00:56:19.337Z,82.16
2018-01-23T00:58:45.941Z,82.20
2018-01-23T01:01:12.498Z,81.74
2018-01-23T01:03:39.106Z,81.59
2018-01-23T01:06:05.777Z,81.67
2018-01-23T01:08:32.375Z,82.10
2018-01-23T01:10:58.965Z,81.98
2018-01-23T01:13:25.570Z,82.05
2018-01-23T01:15:52.202Z,81.56
2018-01-23T01:18:18.774Z,81.48
2018-01-23T01:20:46.171Z,81.33
2018-01-23T01:23:12.752Z,81.04
2018-01-23T01:25:39.363Z,80.92
2018-01-23T01:28:05.952Z,81.09
2018-01-23T01:30:32.593Z,81.25
2018-01-23T01:32:59.904Z,81.27
2018-01-23T01:35:26.501Z,81.43
2018-01-23T01:37:53.082Z,81.65
2018-01-23T01:40:19.665Z,81.86
2018-01-23T01:42:46.231Z,81.88
2018-01-23T01:45:12.854Z,81.77
2018-01-23T01:47:39.407Z,81.79
2018-01-23T01:50:05.992Z,82.21
2018-01-23T01:52:33.330Z,82.00
2018-01-23T01:54:59.952Z,81.84
2018-01-23T01:57:28.406Z,82.03
2018-01-23T01:59:55.078Z,82.19
2018-01-23T02:02:21.643Z,82.41
2018-01-23T02:04:48.233Z,82.43
2018-01-23T02:07:14.911Z,82.55
2018-01-23T02:09:41.517Z,82.47
2018-01-23T02:12:08.850Z,82.45
2018-01-23T02:14:35.461Z,82.09
2018-01-23T02:17:02.755Z,81.66
2018-01-23T02:19:29.336Z,80.91
2018-01-23T02:21:55.961Z,81.15
2018-01-23T02:24:22.559Z,81.15
2018-01-23T02:26:49.152Z,81.04
2018-01-23T02:29:15.737Z,81.12
2018-01-23T02:31:42.323Z,81.49
2018-01-23T02:34:09.633Z,81.72
2018-01-23T02:36:36.256Z,81.65
2018-01-23T02:39:02.932Z,81.37
2018-01-23T02:41:30.281Z,81.36
2018-01-23T02:43:56.862Z,81.01
2018-01-23T02:46:23.458Z,80.69
2018-01-23T02:48:50.847Z,80.79
2018-01-23T02:51:18.172Z,80.71
2018-01-23T02:53:44.751Z,80.97
2018-01-23T02:56:11.371Z,80.87
2018-01-23T02:58:38.653Z,81.17
2018-01-23T03:01:05.241Z,81.38
2018-01-23T03:03:32.579Z,81.65
2018-01-23T03:05:59.200Z,81.59
2018-01-23T03:08:25.781Z,81.95
2018-01-23T03:10:52.392Z,81.74
2018-01-23T03:13:18.986Z,81.95
2018-01-23T03:15:45.592Z,81.99
2018-01-23T03:18:12.907Z,81.92
2018-01-23T03:20:39.504Z,82.12
2018-01-23T03:23:06.098Z,82.12
2018-01-23T03:25:32.722Z,82.26
2018-01-23T03:27:59.338Z,82.58
2018-01-23T03:30:25.916Z,82.83
2018-01-23T03:32:52.501Z,83.02
2018-01-23T03:35:19.135Z,83.00
2018-01-23T03:37:45.698Z,82.77
2018-01-23T03:40:12.315Z,82.90
2018-01-23T03:42:38.905Z,83.01
2018-01-23T03:45:05.476Z,82.84
2018-01-23T03:47:32.034Z,82.59
2018-01-23T03:49:58.653Z,82.39
2018-01-23T03:52:25.298Z,82.01
2018-01-23T03:54:51.913Z,82.02
2018-01-23T03:57:19.233Z,82.12
2018-01-23T03:59:45.799Z,82.08
2018-01-23T04:02:12.426Z,81.98
2018-01-23T04:04:39.731Z,81.88
2018-01-23T04:07:06.315Z,81.55
2018-01-23T04:09:33.642Z,81.43
2018-01-23T04:12:00.199Z,81.57
2018-01-23T04:14:27.531Z,81.43
2018-01-23T04:16:54.078Z,81.69
2018-01-23T04:19:20.646Z,81.47
2018-01-23T04:21:47.226Z,81.48
2018-01-23T04:24:13.790Z,81.43
2018-01-23T04:26:40.386Z,81.23
2018-01-23T04:29:06.943Z,81.35
2018-01-23T04:31:33.519Z,81.59
2018-01-23T04:34:00.121Z,81.59
2018-01-23T04:36:27.810Z,81.77
2018-01-23T04:38:55.119Z,82.12
2018-01-23T04:41:21.711Z,82.07
2018-01-23T04:43:48.275Z,82.02
2018-01-23T04:46:14.871Z,81.93
2018-01-23T04:48:42.175Z,81.83
2018-01-23T04:51:09.046Z,81.78
2018-01-23T04:53:35.654Z,81.79
2018-01-23T04:56:02.220Z,81.69
2018-01-23T04:58:28.817Z,81.78
2018-01-23T05:00:55.445Z,81.75
2018-01-23T05:03:22.118Z,81.65
2018-01-23T05:05:48.678Z,81.53
2018-01-23T05:08:15.274Z,81.59
2018-01-23T05:10:41.894Z,81.43
2018-01-23T05:13:08.494Z,81.41
2018-01-23T05:15:35.823Z,81.26
2018-01-23T05:18:02.419Z,81.21
2018-01-23T05:20:29.018Z,81.03
2018-01-23T05:22:55.646Z,81.53
2018-01-23T05:25:22.230Z,80.68
2018-01-23T05:27:48.814Z,81.14
2018-01-23T05:30:16.262Z,81.25
2018-01-23T05:32:42.821Z,81.51
2018-01-23T05:35:09.463Z,81.53
2018-01-23T05:37:36.769Z,82.08
2018-01-23T05:40:03.440Z,82.42
2018-01-23T05:42:30.091Z,82.22
2018-01-23T05:44:56.650Z,82.63
2018-01-23T05:47:23.418Z,83.54
2018-01-23T05:49:50.007Z,83.11
2018-01-23T05:52:17.342Z,82.38
2018-01-23T05:54:43.947Z,82.44
2018-01-23T05:57:10.531Z,82.77
2018-01-23T05:59:37.833Z,82.98
2018-01-23T06:02:04.523Z,82.82
2018-01-23T06:04:31.807Z,82.83
2018-01-23T06:06:58.425Z,82.90
2018-01-23T06:09:25.745Z,82.62
2018-01-23T06:11:52.446Z,82.41
2018-01-23T06:14:19.164Z,82.00
2018-01-23T06:16:46.477Z,81.54
2018-01-23T06:19:13.095Z,81.56
2018-01-23T06:21:39.683Z,81.84
2018-01-23T06:24:06.354Z,81.83
2018-01-23T06:26:33.068Z,82.02
2018-01-23T06:28:59.712Z,82.37
2018-01-23T06:31:26.347Z,82.50
2018-01-23T06:33:52.918Z,82.41
2018-01-23T06:36:19.698Z,82.36
2018-01-23T06:38:46.335Z,82.32
2018-01-23T06:41:12.894Z,82.53
2018-01-23T06:43:39.477Z,82.86
2018-01-23T06:46:06.104Z,83.03
2018-01-23T06:48:32.681Z,82.99
2018-01-23T06:50:59.394Z,83.09
2018-01-23T06:53:25.974Z,83.14
2018-01-23T06:55:53.290Z,83.13
2018-01-23T06:58:19.907Z,83.66
2018-01-23T07:00:46.467Z,83.37
2018-01-23T07:03:14.077Z,83.51
2018-01-23T07:05:40.638Z,82.93
2018-01-23T07:08:07.210Z,82.86
2018-01-23T07:10:33.776Z,82.83
2018-01-23T07:13:00.358Z,83.16
2018-01-23T07:15:26.952Z,82.94
2018-01-23T07:17:53.561Z,82.89
2018-01-23T07:20:21.738Z,82.66
2018-01-23T07:22:48.298Z,81.68
2018-01-23T07:25:14.884Z,81.84
2018-01-23T07:27:41.502Z,81.23
2018-01-23T07:30:09.010Z,81.60
2018-01-23T07:32:37.453Z,81.76
2018-01-23T07:35:04.014Z,81.37
2018-01-23T07:37:30.621Z,81.00
2018-01-23T07:39:57.222Z,81.16
2018-01-23T07:42:23.873Z,80.52
2018-01-23T07:44:50.474Z,80.91
2018-01-23T07:47:17.142Z,80.72
2018-01-23T07:49:43.789Z,81.21
2018-01-23T07:52:10.403Z,81.07
2018-01-23T07:54:37.068Z,81.31
2018-01-23T07:57:03.641Z,81.49
2018-01-23T07:59:30.278Z,81.37
2018-01-23T08:01:56.918Z,81.62
2018-01-23T08:04:24.246Z,81.84
2018-01-23T08:06:51.080Z,82.05
2018-01-23T08:09:17.859Z,82.04
2018-01-23T08:11:44.493Z,82.21
2018-01-23T08:14:11.039Z,82.38
2018-01-23T08:16:38.465Z,82.58
2018-01-23T08:19:05.030Z,82.35
2018-01-23T08:21:31.643Z,82.09
2018-01-23T08:23:58.210Z,82.23
2018-01-23T08:26:25.686Z,81.33
2018-01-23T08:28:52.271Z,81.09
2018-01-23T08:31:18.982Z,80.52
2018-01-23T08:33:45.653Z,80.82
2018-01-23T08:36:12.239Z,81.17
2018-01-23T08:38:38.904Z,81.82
2018-01-23T08:41:05.486Z,81.76
2018-01-23T08:43:32.073Z,81.83
2018-01-23T08:45:58.666Z,82.19
2018-01-23T08:48:26.067Z,81.88
2018-01-23T08:50:52.647Z,82.29
2018-01-23T08:53:19.964Z,81.74
2018-01-23T08:55:46.597Z,81.64
2018-01-23T08:58:13.196Z,81.46
2018-01-23T09:00:40.677Z,81.00
2018-01-23T09:03:07.354Z,81.25
2018-01-23T09:05:33.985Z,81.79
2018-01-23T09:08:00.542Z,81.85
2018-01-23T09:10:27.143Z,81.82
2018-01-23T09:12:53.721Z,80.88
2018-01-23T09:15:20.324Z,79.80
2018-01-23T09:17:46.958Z,79.55
2018-01-23T09:20:13.580Z,79.32
2018-01-23T09:22:40.262Z,79.86
2018-01-23T09:25:06.827Z,79.68
2018-01-23T09:27:33.409Z,79.68
2018-01-23T09:30:00.213Z,79.40
2018-01-23T09:32:26.761Z,78.69
2018-01-23T09:34:53.390Z,78.45
2018-01-23T09:37:20.313Z,78.11
2018-01-23T09:39:47.757Z,77.92
2018-01-23T09:42:14.359Z,78.21
2018-01-23T09:44:40.954Z,78.99
2018-01-23T09:47:07.518Z,78.84
2018-01-23T09:49:34.470Z,78.49
2018-01-23T09:52:01.065Z,78.89
2018-01-23T09:54:27.651Z,79.07
2018-01-23T09:56:54.275Z,78.58
2018-01-23T09:59:20.978Z,79.13
2018-01-23T10:01:48.414Z,78.73
2018-01-23T10:04:15.221Z,77.74
2018-01-23T10:06:41.818Z,77.69
2018-01-23T10:09:08.465Z,78.66
2018-01-23T10:11:35.035Z,78.23
2018-01-23T10:14:01.603Z,76.79
2018-01-23T10:16:28.962Z,77.37
2018-01-23T10:18:56.271Z,77.75
2018-01-23T10:21:22.913Z,77.41
2018-01-23T10:23:49.743Z,76.59
2018-01-23T10:26:16.303Z,76.68
2018-01-23T10:28:42.941Z,76.77
2018-01-23T10:31:09.834Z,76.04
2018-01-23T10:33:36.830Z,76.11
2018-01-23T10:36:04.152Z,75.24
2018-01-23T10:38:30.716Z,74.14
2018-01-23T10:40:58.819Z,74.24
2018-01-23T10:43:26.203Z,73.58
2018-01-23T10:45:52.825Z,74.21
2018-01-23T10:48:20.134Z,73.73
2018-01-23T10:50:46.961Z,74.12
2018-01-23T10:53:13.549Z,74.20
2018-01-23T10:55:41.157Z,72.43
2018-01-23T10:58:08.481Z,69.98
2018-01-23T11:00:41.213Z,65.48
2018-01-23T11:03:07.833Z,64.40
2018-01-23T11:05:34.455Z,66.60
2018-01-23T11:08:01.013Z,68.26
2018-01-23T11:10:28.397Z,69.38
2018-01-23T11:12:54.986Z,70.65
2018-01-23T11:15:21.637Z,70.53
2018-01-23T11:17:51.730Z,71.26
2018-01-23T11:20:22.407Z,71.70
2018-01-23T11:22:49.028Z,72.01
2018-01-23T11:25:15.674Z,72.70
2018-01-23T11:27:42.303Z,71.86
2018-01-23T11:30:08.960Z,71.50
2018-01-23T11:32:35.606Z,71.93
2018-01-23T11:35:02.240Z,71.85
2018-01-23T11:37:29.613Z,71.67
2018-01-23T11:39:56.242Z,71.88
2018-01-23T11:42:22.891Z,71.76
2018-01-23T11:44:50.230Z,72.49
2018-01-23T11:47:17.570Z,72.16
2018-01-23T11:49:44.124Z,73.52
2018-01-23T11:52:10.702Z,74.20
2018-01-23T11:54:37.330Z,73.53
2018-01-23T11:57:03.927Z,74.08
2018-01-23T11:59:31.401Z,73.69
2018-01-23T12:01:58.118Z,73.95
2018-01-23T12:04:24.701Z,74.80
2018-01-23T12:06:51.291Z,74.20
2018-01-23T12:09:17.953Z,74.37
2018-01-23T12:11:45.262Z,74.91
2018-01-23T12:14:11.871Z,74.20
2018-01-23T12:16:38.623Z,74.83
2018-01-23T12:19:05.202Z,74.32
2018-01-23T12:21:31.757Z,73.88
2018-01-23T12:23:59.144Z,72.81
2018-01-23T12:26:25.898Z,72.60
2018-01-23T12:28:52.489Z,72.73
2018-01-23T12:31:19.196Z,71.47
2018-01-23T12:33:46.126Z,71.71
2018-01-23T12:36:12.742Z,71.71
2018-01-23T12:38:40.078Z,71.22
2018-01-23T12:41:07.393Z,71.42
2018-01-23T12:43:34.731Z,71.31
2018-01-23T12:46:01.355Z,71.22
2018-01-23T12:48:27.943Z,71.53
2018-01-23T12:50:55.259Z,72.18
2018-01-23T12:53:21.888Z,72.88
2018-01-23T12:55:48.454Z,72.28
2018-01-23T12:58:15.800Z,71.82
2018-01-23T13:00:42.402Z,70.84
2018-01-23T13:03:09.045Z,71.05
2018-01-23T13:05:36.155Z,71.44
2018-01-23T13:08:02.776Z,71.33
2018-01-23T13:10:29.377Z,71.35
2018-01-23T13:12:55.961Z,71.53
2018-01-23T13:15:22.590Z,71.68
2018-01-23T13:17:50.218Z,72.10
2018-01-23T13:20:16.854Z,72.75
2018-01-23T13:22:43.423Z,73.02
2018-01-23T13:25:10.769Z,72.32
2018-01-23T13:27:38.117Z,72.64
2018-01-23T13:30:04.918Z,73.23
2018-01-23T13:32:31.508Z,72.86
2018-01-23T13:34:58.821Z,71.97
2018-01-23T13:37:26.206Z,72.02
2018-01-23T13:39:52.838Z,72.51
2018-01-23T13:42:19.523Z,72.80
2018-01-23T13:44:46.453Z,72.44
2018-01-23T13:47:13.946Z,72.91
2018-01-23T13:49:40.546Z,72.82
2018-01-23T13:52:07.190Z,73.35
2018-01-23T13:54:34.498Z,73.29
2018-01-23T13:57:01.065Z,73.76
2018-01-23T13:59:27.656Z,74.03
2018-01-23T14:01:54.348Z,74.03
2018-01-23T14:04:21.661Z,74.42
2018-01-23T14:06:48.287Z,75.20
2018-01-23T14:09:14.853Z,75.52
2018-01-23T14:11:42.316Z,75.33
2018-01-23T14:14:09.661Z,75.10
2018-01-23T14:16:36.230Z,75.16
2018-01-23T14:19:02.988Z,75.19
2018-01-23T14:21:29.559Z,74.98
2018-01-23T14:23:56.138Z,75.71
2018-01-23T14:26:22.765Z,75.85
2018-01-23T14:28:50.073Z,75.96
2018-01-23T14:31:17.527Z,76.05
2018-01-23T14:33:44.111Z,76.19
2018-01-23T14:36:11.659Z,75.89
2018-01-23T14:38:38.260Z,75.85
2018-01-23T14:41:05.618Z,75.92
2018-01-23T14:43:32.262Z,75.83
2018-01-23T14:45:58.848Z,76.05
2018-01-23T14:48:25.408Z,75.86
2018-01-23T14:50:52.079Z,76.39
2018-01-23T14:53:18.687Z,76.33
2018-01-23T14:55:45.258Z,76.04
2018-01-23T14:58:12.070Z,76.11
2018-01-23T15:00:38.666Z,76.33
2018-01-23T15:03:05.251Z,76.25
2018-01-23T15:05:31.844Z,76.38
2018-01-23T15:07:58.522Z,76.73
2018-01-23T15:10:25.099Z,76.72
2018-01-23T15:12:52.417Z,76.66
2018-01-23T15:15:19.106Z,76.70
2018-01-23T15:17:45.714Z,76.51
2018-01-23T15:20:12.365Z,76.93
2018-01-23T15:22:38.969Z,76.93
2018-01-23T15:25:05.530Z,77.36
2018-01-23T15:27:32.166Z,77.09
2018-01-23T15:29:58.835Z,77.19
2018-01-23T15:32:25.500Z,77.44
2018-01-23T15:34:52.146Z,77.53
2018-01-23T15:37:18.742Z,77.98
2018-01-23T15:39:45.342Z,77.48
2018-01-23T15:42:11.973Z,77.77
2018-01-23T15:44:39.343Z,77.99
2018-01-23T15:47:05.965Z,78.07
2018-01-23T15:49:33.309Z,77.77
2018-01-23T15:51:59.874Z,78.14
2018-01-23T15:54:26.475Z,78.12
2018-01-23T15:56:53.107Z,78.44
2018-01-23T15:59:19.707Z,78.15
2018-01-23T16:01:46.561Z,78.11
2018-01-23T16:04:13.322Z,78.18
2018-01-23T16:06:39.995Z,78.31
2018-01-23T16:09:06.616Z,78.18
2018-01-23T16:11:33.269Z,78.27
2018-01-23T16:13:59.838Z,78.19
2018-01-23T16:16:27.202Z,77.76
2018-01-23T16:18:54.050Z,78.04
2018-01-23T16:21:20.800Z,78.26
2018-01-23T16:23:47.590Z,78.48
2018-01-23T16:26:14.177Z,78.28
2018-01-23T16:28:40.857Z,78.18
2018-01-23T16:31:07.541Z,78.24
2018-01-23T16:33:34.162Z,77.91
2018-01-23T16:36:00.790Z,77.83
2018-01-23T16:38:28.182Z,77.72
2018-01-23T16:40:54.761Z,77.73
2018-01-23T16:43:21.428Z,77.57
2018-01-23T16:45:48.749Z,77.42
2018-01-23T16:48:15.343Z,77.48
2018-01-23T16:50:41.937Z,77.44
2018-01-23T16:53:08.510Z,77.02
2018-01-23T16:55:35.115Z,76.98
2018-01-23T16:58:02.716Z,76.81
2018-01-23T17:00:29.346Z,76.98
2018-01-23T17:02:56.034Z,77.33
2018-01-23T17:05:22.711Z,77.38
2018-01-23T17:07:50.046Z,77.49
2018-01-23T17:10:17.432Z,77.07
2018-01-23T17:12:44.039Z,77.00
2018-01-23T17:15:10.622Z,76.50
2018-01-23T17:17:37.281Z,76.86
2018-01-23T17:20:03.941Z,76.93
2018-01-23T17:22:30.560Z,77.27
2018-01-23T17:24:57.209Z,76.64
2018-01-23T17:27:23.919Z,76.67
2018-01-23T17:29:50.789Z,77.16
2018-01-23T17:32:18.459Z,77.21
2018-01-23T17:34:45.607Z,77.40
2018-01-23T17:37:12.672Z,77.58
2018-01-23T17:39:39.678Z,77.68
2018-01-23T17:42:06.593Z,78.09
2018-01-23T17:44:33.593Z,78.27
2018-01-23T17:47:00.568Z,78.12
2018-01-23T17:49:27.518Z,78.30
2018-01-23T17:51:54.376Z,78.33
2018-01-23T17:54:21.301Z,78.34
2018-01-23T17:56:48.197Z,78.47
2018-01-23T17:59:15.412Z,78.24
2018-01-23T18:01:42.363Z,78.51
2018-01-23T18:04:11.817Z,78.51
2018-01-23T18:06:38.844Z,78.69
2018-01-23T18:09:06.541Z,78.37
2018-01-23T18:11:33.414Z,78.55
2018-01-23T18:14:00.165Z,78.85
2018-01-23T18:16:26.813Z,79.15
2018-01-23T18:18:53.541Z,78.81
2018-01-23T18:21:20.187Z,79.19
2018-01-23T18:23:46.850Z,79.20
2018-01-23T18:26:14.737Z,79.27
2018-01-23T18:28:41.420Z,79.02
2018-01-23T18:31:08.198Z,79.17
2018-01-23T18:33:35.762Z,79.17
2018-01-23T18:36:02.661Z,79.18
2018-01-23T18:38:29.395Z,79.12
2018-01-23T18:40:56.012Z,79.07
2018-01-23T18:43:22.654Z,79.11
2018-01-23T18:45:49.411Z,79.34
2018-01-23T18:48:16.163Z,79.02
2018-01-23T18:50:42.971Z,79.37
2018-01-23T18:53:09.871Z,79.40
2018-01-23T18:55:37.417Z,79.32
2018-01-23T18:58:04.133Z,79.05
2018-01-23T19:00:30.930Z,79.26
2018-01-23T19:02:57.821Z,79.76
2018-01-23T19:05:24.638Z,79.63
2018-01-23T19:07:51.573Z,79.83
2018-01-23T19:10:18.458Z,79.86
2018-01-23T19:12:45.269Z,79.83
2018-01-23T19:15:12.090Z,79.78
2018-01-23T19:17:38.957Z,79.88
2018-01-23T19:20:05.788Z,79.86
2018-01-23T19:22:32.661Z,79.71
2018-01-23T19:24:59.394Z,79.73
2018-01-23T19:27:26.028Z,80.05
2018-01-23T19:29:52.679Z,80.08
2018-01-23T19:32:19.321Z,80.18
2018-01-23T19:34:45.949Z,80.07
2018-01-23T19:37:12.557Z,80.29
2018-01-23T19:39:39.967Z,80.51
2018-01-23T19:42:06.594Z,80.16
2018-01-23T19:44:33.178Z,80.19
2018-01-23T19:47:00.567Z,80.04
2018-01-23T19:49:27.196Z,79.99
2018-01-23T19:51:54.053Z,79.87
2018-01-23T19:54:21.447Z,80.11
2018-01-23T19:56:48.105Z,80.34
2018-01-23T19:59:16.350Z,80.21
2018-01-23T20:01:42.991Z,79.91
2018-01-23T20:04:09.707Z,80.18
2018-01-23T20:06:36.342Z,79.92
2018-01-23T20:09:03.743Z,79.65
2018-01-23T20:11:30.373Z,79.68
2018-01-23T20:13:57.078Z,78.90
2018-01-23T20:16:23.693Z,78.75
2018-01-23T20:18:50.494Z,78.48
2018-01-23T20:21:17.126Z,78.24
2018-01-23T20:23:43.731Z,78.10
2018-01-23T20:26:10.418Z,78.11
2018-01-23T20:28:37.775Z,78.21
2018-01-23T20:31:05.177Z,78.28
2018-01-23T20:33:31.937Z,77.43
2018-01-23T20:35:58.539Z,77.53
2018-01-23T20:38:25.254Z,76.64
2018-01-23T20:40:52.618Z,76.62
2018-01-23T20:43:20.081Z,76.61
2018-01-23T20:45:46.698Z,76.58
2018-01-23T20:48:14.085Z,76.91
2018-01-23T20:50:40.758Z,76.83
2018-01-23T20:53:07.366Z,76.69
2018-01-23T20:55:34.110Z,76.31
2018-01-23T20:58:00.747Z,75.99
2018-01-23T21:00:27.378Z,76.08
2018-01-23T21:02:54.038Z,76.39
2018-01-23T21:05:20.816Z,75.96
2018-01-23T21:07:47.383Z,75.43
2018-01-23T21:10:14.035Z,75.51
2018-01-23T21:12:40.679Z,75.77
2018-01-23T21:15:07.307Z,75.72
2018-01-23T21:17:33.918Z,75.72
2018-01-23T21:20:01.347Z,76.41
2018-01-23T21:22:28.030Z,76.58
2018-01-23T21:24:54.660Z,76.90
2018-01-23T21:27:21.280Z,77.38
2018-01-23T21:29:48.654Z,77.37
2018-01-23T21:32:15.215Z,77.59
2018-01-23T21:34:41.882Z,77.43
2018-01-23T21:37:09.387Z,77.70
2018-01-23T21:39:36.027Z,77.76
2018-01-23T21:42:02.730Z,77.46
2018-01-23T21:44:29.473Z,77.83
2018-01-23T21:46:56.171Z,78.03
2018-01-23T21:49:22.759Z,77.79
2018-01-23T21:51:50.112Z,77.53
2018-01-23T21:54:17.496Z,77.38
2018-01-23T21:56:44.065Z,77.41
2018-01-23T21:59:10.705Z,77.23
2018-01-23T22:01:37.338Z,76.96
2018-01-23T22:04:04.023Z,77.06
2018-01-23T22:06:31.425Z,76.79
2018-01-23T22:08:57.969Z,76.94
2018-01-23T22:11:24.691Z,76.97
2018-01-23T22:13:51.291Z,76.89
2018-01-23T22:16:17.909Z,77.02
2018-01-23T22:18:44.535Z,77.48
2018-01-23T22:21:11.106Z,77.59
2018-01-23T22:23:37.745Z,77.66
2018-01-23T22:26:05.067Z,77.75
2018-01-23T22:28:31.688Z,77.95
2018-01-23T22:30:58.337Z,77.84
2018-01-23T22:33:24.955Z,78.04
2018-01-23T22:35:51.521Z,77.58
2018-01-23T22:38:18.169Z,77.63
2018-01-23T22:40:44.749Z,77.75
2018-01-23T22:43:11.354Z,78.05
2018-01-23T22:45:38.724Z,78.17
2018-01-23T22:48:05.455Z,77.91
2018-01-23T22:50:32.072Z,77.76
2018-01-23T22:52:58.646Z,77.93
2018-01-23T22:55:25.496Z,77.81
2018-01-23T22:57:52.067Z,77.45
2018-01-23T23:00:18.670Z,77.45
2018-01-23T23:02:45.290Z,77.21
2018-01-23T23:05:11.921Z,77.20
2018-01-23T23:07:38.494Z,77.37
2018-01-23T23:10:05.200Z,76.89
2018-01-23T23:12:31.791Z,76.45
2018-01-23T23:14:58.365Z,76.23
2018-01-23T23:17:24.994Z,75.59
2018-01-23T23:19:52.354Z,75.26
2018-01-23T23:22:19.671Z,74.65
2018-01-23T23:24:46.242Z,74.58
2018-01-23T23:27:12.838Z,74.71
2018-01-23T23:29:39.421Z,74.60
2018-01-23T23:32:06.084Z,74.53
2018-01-23T23:34:32.710Z,74.83
2018-01-23T23:36:59.324Z,75.14
2018-01-23T23:39:26.660Z,75.40
2018-01-23T23:41:53.258Z,75.46
2018-01-23T23:44:19.833Z,75.12
2018-01-23T23:46:46.448Z,75.12
2018-01-23T23:49:13.058Z,74.97
2018-01-23T23:51:39.627Z,75.18
2018-01-23T23:54:06.209Z,74.82
2018-01-23T23:56:32.861Z,74.77
2018-01-23T23:58:59.440Z,74.78
